Time;durP1;ratioP1;P1;durP2;ratioP2;P2;SDS_P1;SDS_P2;PMS_P1;PMS_P2;Temp;Humidity;BMP_temperature;BMP_pressure;BME280_temperature;BME280_humidity;BME280_pressure;Samples;Min_cycle;Max_cycle;Signal;HPM_P1;HPM_P2
2022/03/23 00:01:31;;;;;;;14.00;6.33;;;;;;;;;;6312680;22;20165;-86
2022/03/23 00:04:38;;;;;;;15.00;6.27;;;;;;;;;;6314577;22;20169;-87
2022/03/23 00:07:43;;;;;;;12.77;5.63;;;;;;;;;;6296609;22;20164;-87
2022/03/23 00:10:48;;;;;;;15.87;6.10;;;;;;;;;;6313247;22;20165;-86
2022/03/23 00:13:53;;;;;;;13.40;5.50;;;;;;;;;;6312801;22;20628;-84
2022/03/23 00:17:04;;;;;;;17.43;5.90;;;;;;;;;;6295222;22;20173;-86
2022/03/23 00:20:12;;;;;;;12.33;5.40;;;;;;;;;;6312795;22;20237;-86
2022/03/23 00:23:17;;;;;;;11.70;5.30;;;;;;;;;;6313428;22;20169;-87
2022/03/23 00:26:22;;;;;;;12.00;5.50;;;;;;;;;;6294747;22;20185;-86
2022/03/23 00:29:27;;;;;;;14.00;5.33;;;;;;;;;;6311652;22;20186;-86
2022/03/23 00:32:32;;;;;;;12.60;5.13;;;;;;;;;;6293695;22;20173;-86
2022/03/23 00:35:43;;;;;;;14.83;5.37;;;;;;;;;;6312668;22;20243;-87
2022/03/23 00:38:48;;;;;;;12.57;5.57;;;;;;;;;;6293546;22;20193;-86
2022/03/23 00:41:53;;;;;;;13.77;4.83;;;;;;;;;;6292724;22;20165;-86
2022/03/23 00:44:58;;;;;;;11.30;5.00;;;;;;;;;;6310032;22;20181;-86
2022/03/23 00:48:03;;;;;;;15.90;5.70;;;;;;;;;;6292401;22;20165;-85
2022/03/23 00:51:10;;;;;;;15.40;5.80;;;;;;;;;;6311383;22;20189;-87
2022/03/23 00:54:16;;;;;;;10.67;5.33;;;;;;;;;;6311681;22;20165;-86
2022/03/23 00:57:21;;;;;;;12.43;5.00;;;;;;;;;;6311642;22;20164;-87
2022/03/23 01:00:26;;;;;;;11.43;5.07;;;;;;;;;;6312215;22;20161;-86
2022/03/23 01:03:31;;;;;;;10.80;4.90;;;;;;;;;;6311368;22;20173;-86
2022/03/23 01:06:40;;;;;;;10.33;5.00;;;;;;;;;;6315323;22;20181;-85
2022/03/23 01:09:49;;;;;;;12.60;5.33;;;;;;;;;;6312534;22;20169;-87
2022/03/23 01:12:55;;;;;;;13.30;5.07;;;;;;;;;;6293957;22;20168;-85
2022/03/23 01:15:59;;;;;;;11.87;4.67;;;;;;;;;;6312458;22;20731;-88
2022/03/23 01:19:10;;;;;;;14.40;5.27;;;;;;;;;;6309917;22;20607;-86
2022/03/23 01:22:16;;;;;;;10.37;4.87;;;;;;;;;;6293481;22;20624;-87
2022/03/23 01:25:21;;;;;;;10.90;4.67;;;;;;;;;;6294709;22;20170;-86
2022/03/23 01:28:27;;;;;;;9.40;4.60;;;;;;;;;;6310220;22;20243;-87
2022/03/23 01:31:32;;;;;;;9.53;4.93;;;;;;;;;;6292170;22;20502;-87
2022/03/23 01:34:38;;;;;;;12.07;5.07;;;;;;;;;;6293667;22;20573;-87
2022/03/23 01:37:45;;;;;;;12.10;5.03;;;;;;;;;;6311995;22;20165;-86
2022/03/23 01:40:50;;;;;;;12.50;5.03;;;;;;;;;;6312400;22;20161;-87
2022/03/23 01:43:58;;;;;;;11.37;4.97;;;;;;;;;;6316273;22;20172;-87
2022/03/23 01:47:07;;;;;;;10.63;5.17;;;;;;;;;;6312255;22;20172;-87
2022/03/23 01:50:12;;;;;;;12.23;4.80;;;;;;;;;;6311721;22;20188;-87
2022/03/23 01:53:18;;;;;;;10.20;4.63;;;;;;;;;;6293550;22;20177;-86
2022/03/23 01:56:24;;;;;;;14.40;5.23;;;;;;;;;;6311672;22;20291;-85
2022/03/23 01:59:29;;;;;;;15.90;5.53;;;;;;;;;;6313127;22;20208;-86
2022/03/23 02:02:35;;;;;;;11.50;5.10;;;;;;;;;;6294858;22;20270;-85
2022/03/23 02:05:42;;;;;;;8.80;4.43;;;;;;;;;;6311421;22;20196;-86
2022/03/23 02:08:49;;;;;;;10.10;5.10;;;;;;;;;;6311106;22;20193;-86
2022/03/23 02:11:54;;;;;;;12.47;5.10;;;;;;;;;;6312235;22;20172;-86
2022/03/23 02:15:00;;;;;;;9.43;4.90;;;;;;;;;;6312472;22;20172;-87
2022/03/23 02:18:06;;;;;;;14.70;5.30;;;;;;;;;;6311731;22;20169;-87
2022/03/23 02:21:14;;;;;;;12.23;5.40;;;;;;;;;;6294233;22;20161;-87
2022/03/23 02:24:23;;;;;;;12.63;5.20;;;;;;;;;;6312739;22;20648;-86
2022/03/23 02:27:28;;;;;;;11.40;4.63;;;;;;;;;;6311082;22;20628;-85
2022/03/23 02:30:33;;;;;;;13.33;4.80;;;;;;;;;;6312140;22;20191;-85
2022/03/23 02:33:39;;;;;;;11.37;4.87;;;;;;;;;;6313634;22;20185;-86
2022/03/23 02:36:43;;;;;;;12.23;4.83;;;;;;;;;;6310825;22;20173;-86
2022/03/23 02:39:51;;;;;;;10.63;4.67;;;;;;;;;;6293663;22;20525;-84
2022/03/23 02:42:56;;;;;;;9.83;4.70;;;;;;;;;;6311658;22;20172;-84
2022/03/23 02:46:01;;;;;;;12.07;5.30;;;;;;;;;;6311561;22;20227;-86
2022/03/23 02:49:07;;;;;;;13.70;4.60;;;;;;;;;;6293484;22;20211;-86
2022/03/23 02:52:11;;;;;;;10.67;4.60;;;;;;;;;;6312980;22;20165;-86
2022/03/23 03:02:12;;;;;;;17.67;5.60;;;;;;;;;;6312117;22;20196;-85
2022/03/23 03:05:17;;;;;;;15.13;5.67;;;;;;;;;;6311260;22;20187;-85
2022/03/23 03:11:47;;;;;;;14.30;5.73;;;;;;;;;;6310164;22;20161;-86
2022/03/23 03:14:52;;;;;;;12.30;4.93;;;;;;;;;;6311312;22;20193;-87
2022/03/23 03:17:59;;;;;;;14.03;5.90;;;;;;;;;;6310300;22;20173;-87
2022/03/23 03:21:06;;;;;;;13.03;5.13;;;;;;;;;;6293830;22;20166;-87
2022/03/23 03:24:11;;;;;;;11.03;5.10;;;;;;;;;;6312130;22;20172;-87
2022/03/23 03:27:17;;;;;;;10.73;5.00;;;;;;;;;;6292509;22;20207;-86
2022/03/23 03:30:22;;;;;;;10.57;4.97;;;;;;;;;;6312166;22;20203;-87
2022/03/23 03:33:27;;;;;;;15.10;5.27;;;;;;;;;;6312006;22;20178;-87
2022/03/23 03:36:32;;;;;;;13.40;5.30;;;;;;;;;;6292464;22;20173;-86
2022/03/23 03:39:37;;;;;;;12.90;5.53;;;;;;;;;;6310802;22;20203;-86
2022/03/23 03:42:43;;;;;;;16.90;5.57;;;;;;;;;;6293922;22;20219;-87
2022/03/23 03:45:48;;;;;;;15.03;5.37;;;;;;;;;;6311600;22;20629;-88
2022/03/23 03:48:55;;;;;;;12.97;5.30;;;;;;;;;;6294368;22;20161;-87
2022/03/23 03:52:01;;;;;;;14.10;6.30;;;;;;;;;;6264107;22;20212;-86
2022/03/23 03:55:06;;;;;;;14.83;6.30;;;;;;;;;;6262035;22;20177;-87
2022/03/23 03:58:12;;;;;;;21.53;7.17;;;;;;;;;;6263666;22;20165;-86
2022/03/23 04:01:17;;;;;;;24.40;6.83;;;;;;;;;;6261541;22;20203;-87
2022/03/23 04:04:22;;;;;;;16.37;6.17;;;;;;;;;;6262512;22;20235;-86
2022/03/23 04:07:27;;;;;;;17.03;6.30;;;;;;;;;;6262508;22;20602;-86
2022/03/23 04:10:32;;;;;;;15.77;6.10;;;;;;;;;;6263029;22;20162;-87
2022/03/23 04:13:38;;;;;;;17.23;6.30;;;;;;;;;;6261339;22;20289;-87
2022/03/23 04:16:43;;;;;;;16.47;6.70;;;;;;;;;;6261882;22;20178;-85
2022/03/23 04:19:48;;;;;;;22.83;6.80;;;;;;;;;;6261879;22;20194;-86
2022/03/23 04:22:53;;;;;;;16.03;6.70;;;;;;;;;;6262420;22;20174;-87
2022/03/23 04:25:58;;;;;;;20.77;8.60;;;;;;;;;;6282362;22;20169;-87
2022/03/23 04:29:04;;;;;;;15.03;6.30;;;;;;;;;;6261861;22;20245;-87
2022/03/23 04:32:10;;;;;;;23.57;7.00;;;;;;;;;;6280027;22;20166;-85
2022/03/23 04:35:15;;;;;;;19.30;6.57;;;;;;;;;;6263030;22;20288;-86
2022/03/23 04:38:20;;;;;;;17.90;7.00;;;;;;;;;;6263366;22;20165;-86
2022/03/23 04:41:25;;;;;;;21.97;6.60;;;;;;;;;;6262105;22;20240;-85
2022/03/23 04:44:31;;;;;;;17.60;5.70;;;;;;;;;;6262893;22;20179;-86
2022/03/23 04:47:36;;;;;;;16.80;6.17;;;;;;;;;;6263330;22;20170;-85
2022/03/23 04:50:41;;;;;;;14.27;5.90;;;;;;;;;;6271466;22;20297;-85
2022/03/23 04:53:47;;;;;;;15.50;5.10;;;;;;;;;;6279204;22;20191;-86
2022/03/23 04:56:51;;;;;;;18.07;6.10;;;;;;;;;;6280882;22;20169;-86
2022/03/23 04:59:58;;;;;;;14.63;5.27;;;;;;;;;;6280460;22;20213;-85
2022/03/23 05:03:13;;;;;;;13.50;6.20;;;;;;;;;;6281446;22;20166;-86
2022/03/23 05:06:18;;;;;;;11.90;5.70;;;;;;;;;;6280107;22;20169;-85
2022/03/23 05:09:23;;;;;;;14.63;5.23;;;;;;;;;;6281352;22;20170;-86
2022/03/23 05:12:28;;;;;;;15.20;5.83;;;;;;;;;;6301254;22;20212;-85
2022/03/23 05:15:36;;;;;;;14.27;6.27;;;;;;;;;;6284048;22;20169;-86
2022/03/23 05:18:42;;;;;;;12.63;5.70;;;;;;;;;;6302457;22;20293;-86
2022/03/23 05:21:47;;;;;;;10.87;5.40;;;;;;;;;;6283487;22;20218;-86
2022/03/23 05:24:53;;;;;;;15.17;5.97;;;;;;;;;;6282734;22;20209;-86
2022/03/23 05:27:57;;;;;;;13.27;5.83;;;;;;;;;;6299986;22;20499;-87
2022/03/23 05:31:03;;;;;;;15.60;5.47;;;;;;;;;;6299157;22;20170;-86
2022/03/23 05:34:08;;;;;;;14.17;5.17;;;;;;;;;;6299782;22;20212;-85
2022/03/23 05:37:13;;;;;;;11.57;5.17;;;;;;;;;;6282846;22;20173;-86
2022/03/23 05:40:20;;;;;;;14.70;5.67;;;;;;;;;;6300673;22;20763;-86
2022/03/23 05:43:25;;;;;;;14.57;6.20;;;;;;;;;;6281051;22;20173;-85
2022/03/23 05:46:33;;;;;;;13.80;6.27;;;;;;;;;;6282946;22;20244;-86
2022/03/23 05:49:38;;;;;;;19.47;6.43;;;;;;;;;;6292216;22;20189;-86
2022/03/23 05:52:42;;;;;;;22.27;6.63;;;;;;;;;;6314962;22;20225;-85
2022/03/23 05:55:47;;;;;;;27.00;7.37;;;;;;;;;;6314979;22;20177;-84
2022/03/23 05:58:53;;;;;;;15.67;5.73;;;;;;;;;;6315525;22;20615;-87
2022/03/23 06:02:00;;;;;;;19.43;6.00;;;;;;;;;;6294865;22;20173;-85
2022/03/23 06:05:06;;;;;;;14.17;5.37;;;;;;;;;;6314738;22;20168;-86
2022/03/23 06:08:10;;;;;;;16.20;5.90;;;;;;;;;;6316796;22;20493;-86
2022/03/23 06:11:18;;;;;;;14.27;5.87;;;;;;;;;;6312243;22;20165;-85
2022/03/23 06:14:23;;;;;;;13.70;6.50;;;;;;;;;;6312804;22;20750;-85
2022/03/23 06:17:30;;;;;;;20.07;6.17;;;;;;;;;;6295613;22;20221;-86
2022/03/23 06:20:35;;;;;;;15.03;6.37;;;;;;;;;;6312177;22;20267;-86
2022/03/23 06:23:40;;;;;;;15.77;5.63;;;;;;;;;;6295553;22;20232;-86
2022/03/23 06:26:45;;;;;;;16.40;6.47;;;;;;;;;;6295519;22;20272;-86
2022/03/23 06:29:50;;;;;;;17.10;6.00;;;;;;;;;;6313878;22;20181;-86
2022/03/23 06:32:57;;;;;;;12.33;5.40;;;;;;;;;;6315606;22;20682;-85
2022/03/23 06:36:02;;;;;;;12.53;4.60;;;;;;;;;;6313476;22;20185;-85
2022/03/23 06:39:07;;;;;;;9.80;5.27;;;;;;;;;;6312836;22;20173;-85
2022/03/23 06:42:12;;;;;;;12.10;5.67;;;;;;;;;;6294431;22;20173;-86
2022/03/23 06:45:17;;;;;;;11.83;5.43;;;;;;;;;;6294667;22;20609;-85
2022/03/23 06:48:23;;;;;;;14.67;6.03;;;;;;;;;;6296342;22;20776;-86
2022/03/23 06:51:29;;;;;;;28.73;6.60;;;;;;;;;;6313109;22;20177;-85
2022/03/23 06:54:38;;;;;;;13.90;5.87;;;;;;;;;;6315114;22;20169;-87
2022/03/23 06:57:43;;;;;;;14.97;6.63;;;;;;;;;;6314922;22;20173;-86
2022/03/23 07:00:48;;;;;;;16.90;6.10;;;;;;;;;;6313091;22;20197;-86
2022/03/23 07:03:55;;;;;;;15.53;6.13;;;;;;;;;;6314239;22;20172;-83
2022/03/23 07:07:01;;;;;;;21.53;6.57;;;;;;;;;;6317145;22;20180;-87
2022/03/23 07:10:06;;;;;;;17.47;6.10;;;;;;;;;;6296640;22;20180;-86
2022/03/23 07:13:13;;;;;;;13.03;5.87;;;;;;;;;;6317292;22;20165;-86
2022/03/23 07:16:19;;;;;;;11.57;5.90;;;;;;;;;;6300276;22;20241;-86
2022/03/23 07:19:26;;;;;;;20.13;6.77;;;;;;;;;;6298850;22;20161;-85
2022/03/23 07:22:31;;;;;;;11.40;5.37;;;;;;;;;;6314841;22;20166;-86
2022/03/23 07:25:37;;;;;;;13.30;5.70;;;;;;;;;;6316422;22;20172;-85
2022/03/23 07:28:41;;;;;;;14.07;5.20;;;;;;;;;;6315889;22;20165;-85
2022/03/23 07:31:47;;;;;;;12.20;5.47;;;;;;;;;;6314612;22;20161;-85
2022/03/23 07:34:53;;;;;;;22.17;6.13;;;;;;;;;;6317499;22;20165;-86
2022/03/23 07:37:58;;;;;;;20.47;5.50;;;;;;;;;;6297293;22;20792;-84
2022/03/23 07:41:03;;;;;;;16.47;6.30;;;;;;;;;;6314413;22;20212;-85
2022/03/23 07:44:08;;;;;;;16.87;6.83;;;;;;;;;;6294992;22;20165;-86
2022/03/23 07:47:15;;;;;;;17.37;5.90;;;;;;;;;;6314537;22;20161;-86
2022/03/23 07:50:21;;;;;;;14.97;5.23;;;;;;;;;;6295247;22;20189;-85
2022/03/23 07:53:25;;;;;;;20.27;5.23;;;;;;;;;;6314658;22;20169;-85
2022/03/23 07:56:30;;;;;;;11.10;4.90;;;;;;;;;;6314014;22;20173;-85
2022/03/23 07:59:35;;;;;;;9.20;4.57;;;;;;;;;;6296238;22;20510;-87
2022/03/23 08:02:40;;;;;;;10.67;4.90;;;;;;;;;;6312595;22;20169;-86
2022/03/23 08:05:46;;;;;;;12.13;5.17;;;;;;;;;;6314543;22;20161;-85
2022/03/23 08:08:52;;;;;;;10.53;5.07;;;;;;;;;;6294543;22;20628;-88
2022/03/23 08:11:57;;;;;;;12.07;5.00;;;;;;;;;;6295287;22;20612;-86
2022/03/23 08:15:02;;;;;;;9.80;4.40;;;;;;;;;;6311853;22;20623;-86
2022/03/23 08:18:41;;;;;;;12.40;4.93;;;;;;;;;;6312140;22;20169;-86
2022/03/23 08:21:48;;;;;;;15.20;5.33;;;;;;;;;;6313636;22;20193;-86
2022/03/23 08:24:53;;;;;;;10.53;5.07;;;;;;;;;;6315202;22;20196;-86
2022/03/23 08:27:58;;;;;;;16.30;5.63;;;;;;;;;;6316492;22;20185;-87
2022/03/23 08:31:04;;;;;;;76.85;25.77;;;;;;;;;;6314608;22;20188;-86
2022/03/23 08:34:09;;;;;;;15.00;5.90;;;;;;;;;;6299076;22;20177;-85
2022/03/23 08:37:15;;;;;;;49.70;16.75;;;;;;;;;;6298737;22;20225;-86
2022/03/23 08:40:21;;;;;;;20.05;7.88;;;;;;;;;;6315050;22;20207;-87
2022/03/23 08:43:28;;;;;;;16.20;6.88;;;;;;;;;;6297691;22;20168;-87
2022/03/23 08:46:33;;;;;;;21.30;7.47;;;;;;;;;;6296905;22;20195;-86
2022/03/23 08:49:38;;;;;;;24.33;10.57;;;;;;;;;;6296911;22;20248;-85
2022/03/23 08:52:45;;;;;;;23.95;10.02;;;;;;;;;;6295596;22;20165;-85
2022/03/23 08:55:49;;;;;;;12.32;5.65;;;;;;;;;;6298357;22;20224;-86
2022/03/23 08:58:54;;;;;;;43.67;17.60;;;;;;;;;;6295905;22;20169;-86
2022/03/23 09:01:59;;;;;;;37.92;16.67;;;;;;;;;;6296361;22;20286;-86
2022/03/23 09:05:05;;;;;;;9.82;5.03;;;;;;;;;;6299654;22;20169;-87
2022/03/23 09:08:17;;;;;;;16.88;7.70;;;;;;;;;;6318122;22;20169;-87
2022/03/23 09:11:23;;;;;;;10.75;5.32;;;;;;;;;;6318351;22;20195;-87
2022/03/23 09:14:27;;;;;;;13.20;5.32;;;;;;;;;;6299607;22;20299;-87
2022/03/23 09:18:06;;;;;;;9.43;4.20;;;;;;;;;;6297476;22;20161;-88
2022/03/23 09:21:13;;;;;;;10.05;3.67;;;;;;;;;;6296756;22;20220;-86
2022/03/23 09:24:20;;;;;;;8.13;3.75;;;;;;;;;;6297155;22;20165;-87
2022/03/23 09:27:25;;;;;;;8.18;4.75;;;;;;;;;;6315907;22;20169;-87
2022/03/23 09:30:30;;;;;;;12.73;4.65;;;;;;;;;;6319515;22;20270;-89
2022/03/23 09:33:36;;;;;;;8.60;4.93;;;;;;;;;;6315313;22;20180;-88
2022/03/23 09:40:07;;;;;;;11.77;4.68;;;;;;;;;;6319009;22;20510;-86
2022/03/23 09:43:13;;;;;;;12.35;4.38;;;;;;;;;;6317700;22;20164;-89
2022/03/23 09:46:17;;;;;;;9.55;4.70;;;;;;;;;;6319571;22;20247;-88
2022/03/23 09:49:23;;;;;;;9.05;4.88;;;;;;;;;;6300631;22;20183;-89
2022/03/23 09:52:28;;;;;;;10.88;4.88;;;;;;;;;;6318565;22;20231;-89
2022/03/23 09:55:36;;;;;;;9.25;5.00;;;;;;;;;;6321017;22;20168;-87
2022/03/23 09:58:42;;;;;;;9.85;5.07;;;;;;;;;;6302430;22;20189;-87
2022/03/23 10:02:13;;;;;;;11.15;5.07;;;;;;;;;;6302201;22;20259;-87
2022/03/23 10:05:40;;;;;;;15.07;5.30;;;;;;;;;;6321670;22;20183;-88
2022/03/23 10:09:09;;;;;;;8.32;4.50;;;;;;;;;;6322993;22;20233;-85
2022/03/23 10:12:32;;;;;;;9.00;4.93;;;;;;;;;;6321782;22;20538;-89
2022/03/23 10:16:02;;;;;;;8.55;4.95;;;;;;;;;;6323967;22;20238;-88
2022/03/23 10:19:09;;;;;;;9.10;4.90;;;;;;;;;;6322715;22;20147;-88
2022/03/23 10:22:15;;;;;;;7.47;4.43;;;;;;;;;;6306010;22;20151;-87
2022/03/23 10:25:26;;;;;;;12.35;4.10;;;;;;;;;;6305987;22;20161;-88
2022/03/23 10:28:35;;;;;;;6.07;4.05;;;;;;;;;;6325330;22;20187;-86
2022/03/23 10:31:42;;;;;;;6.10;3.55;;;;;;;;;;6325287;22;20187;-87
2022/03/23 10:34:55;;;;;;;8.65;3.97;;;;;;;;;;6325054;22;20153;-86
2022/03/23 10:38:00;;;;;;;12.25;4.00;;;;;;;;;;6303459;22;20140;-89
2022/03/23 10:41:09;;;;;;;8.35;4.22;;;;;;;;;;6320233;22;20496;-88
2022/03/23 10:44:17;;;;;;;6.65;3.58;;;;;;;;;;6321820;22;20206;-90
2022/03/23 10:47:23;;;;;;;7.15;3.22;;;;;;;;;;6321031;22;20283;-86
2022/03/23 10:50:30;;;;;;;4.13;2.53;;;;;;;;;;6321262;22;20189;-88
2022/03/23 10:53:35;;;;;;;4.50;3.17;;;;;;;;;;6319680;22;20180;-89
2022/03/23 10:56:41;;;;;;;9.98;3.03;;;;;;;;;;6303068;22;20215;-88
2022/03/23 10:59:47;;;;;;;6.05;2.83;;;;;;;;;;6300267;22;20227;-86
2022/03/23 11:02:52;;;;;;;10.07;3.88;;;;;;;;;;6321722;22;20215;-87
2022/03/23 11:06:00;;;;;;;7.40;2.85;;;;;;;;;;6303106;22;20172;-86
2022/03/23 11:15:46;;;;;;;7.20;2.67;;;;;;;;;;6321306;22;20173;-88
2022/03/23 11:16:02;;;;;;;6.97;2.97;;;;;;;;;;6319352;22;20168;-86
2022/03/23 11:19:09;;;;;;;5.18;3.00;;;;;;;;;;6321174;22;20213;-88
2022/03/23 11:22:17;;;;;;;5.75;2.80;;;;;;;;;;6318323;22;20172;-87
2022/03/23 11:25:23;;;;;;;4.60;2.65;;;;;;;;;;6318897;22;20220;-88
2022/03/23 11:28:28;;;;;;;5.40;2.78;;;;;;;;;;6303314;22;20160;-91
2022/03/23 11:31:36;;;;;;;8.07;2.70;;;;;;;;;;6300800;22;20188;-85
2022/03/23 11:34:41;;;;;;;5.78;2.40;;;;;;;;;;6301163;22;20607;-86
2022/03/23 11:37:48;;;;;;;3.75;2.78;;;;;;;;;;6318444;22;20169;-87
2022/03/23 11:40:53;;;;;;;6.45;3.00;;;;;;;;;;6318896;22;20148;-86
2022/03/23 11:43:58;;;;;;;6.80;2.92;;;;;;;;;;6317129;22;20172;-86
2022/03/23 11:47:07;;;;;;;10.63;3.35;;;;;;;;;;6318451;22;20160;-87
2022/03/23 11:50:18;;;;;;;6.38;3.10;;;;;;;;;;6319641;22;20199;-88
2022/03/23 11:53:30;;;;;;;9.48;3.85;;;;;;;;;;6320517;22;20153;-88
2022/03/23 11:56:41;;;;;;;8.18;3.03;;;;;;;;;;6318696;22;20157;-89
2022/03/23 11:59:47;;;;;;;10.35;3.38;;;;;;;;;;6302702;22;20187;-88
2022/03/23 12:02:52;;;;;;;8.32;3.45;;;;;;;;;;6321521;22;20223;-86
2022/03/23 12:06:09;;;;;;;10.82;3.25;;;;;;;;;;6321564;22;20165;-88
2022/03/23 12:09:29;;;;;;;6.32;3.67;;;;;;;;;;6323208;22;20165;-87
2022/03/23 12:12:38;;;;;;;6.05;3.53;;;;;;;;;;6322998;22;20195;-87
2022/03/23 12:15:58;;;;;;;8.57;3.40;;;;;;;;;;6301029;22;20510;-87
2022/03/23 12:19:04;;;;;;;6.70;3.22;;;;;;;;;;6318230;22;20176;-88
2022/03/23 12:22:15;;;;;;;11.65;3.65;;;;;;;;;;6299231;22;20623;-89
2022/03/23 15:33:34;;;;;;;8.55;2.90;;;;;;;;;;6238954;22;20171;-86
2022/03/23 15:36:39;;;;;;;8.85;2.60;;;;;;;;;;6239303;23;20506;-87
2022/03/23 15:39:44;;;;;;;4.63;2.50;;;;;;;;;;6237506;23;20173;-87
2022/03/23 15:43:05;;;;;;;4.43;2.30;;;;;;;;;;6255567;23;20169;-87
2022/03/23 15:46:10;;;;;;;7.32;2.75;;;;;;;;;;6253531;23;20158;-87
2022/03/23 15:49:17;;;;;;;5.82;2.78;;;;;;;;;;6255512;23;20492;-86
2022/03/23 15:52:22;;;;;;;8.95;2.50;;;;;;;;;;6252972;23;20206;-88
2022/03/23 15:55:27;;;;;;;5.28;2.33;;;;;;;;;;6252972;23;20210;-88
2022/03/23 15:58:32;;;;;;;3.75;2.17;;;;;;;;;;6236409;23;20629;-87
2022/03/23 16:01:38;;;;;;;5.13;2.22;;;;;;;;;;6252920;23;20197;-87
2022/03/23 16:04:44;;;;;;;6.82;2.58;;;;;;;;;;6254505;23;20629;-88
2022/03/23 16:07:50;;;;;;;6.45;2.70;;;;;;;;;;6256308;23;20213;-86
2022/03/23 16:10:56;;;;;;;6.82;2.60;;;;;;;;;;6253250;23;20508;-89
2022/03/23 16:14:01;;;;;;;9.48;2.72;;;;;;;;;;6253676;23;20166;-87
2022/03/23 16:17:06;;;;;;;9.13;2.25;;;;;;;;;;6252349;22;20165;-86
2022/03/23 16:20:14;;;;;;;3.20;2.17;;;;;;;;;;6252398;23;20150;-87
2022/03/23 16:23:19;;;;;;;15.80;2.67;;;;;;;;;;6252961;23;20174;-87
2022/03/23 16:26:24;;;;;;;7.68;2.63;;;;;;;;;;6252628;23;20167;-86
2022/03/23 16:29:30;;;;;;;5.57;2.40;;;;;;;;;;6236492;23;20171;-87
2022/03/23 16:32:37;;;;;;;13.57;3.20;;;;;;;;;;6252843;23;20547;-86
2022/03/23 16:35:44;;;;;;;8.95;2.70;;;;;;;;;;6255941;23;20629;-87
2022/03/23 16:38:50;;;;;;;5.95;2.45;;;;;;;;;;6254902;23;20178;-86
2022/03/23 16:41:55;;;;;;;8.45;3.63;;;;;;;;;;6254971;23;20167;-88
2022/03/23 16:45:00;;;;;;;10.32;2.70;;;;;;;;;;6252613;23;20618;-88
2022/03/23 16:48:05;;;;;;;4.50;2.58;;;;;;;;;;6270299;22;20186;-89
2022/03/23 16:51:12;;;;;;;7.40;2.50;;;;;;;;;;6270673;22;20798;-84
2022/03/23 16:54:18;;;;;;;11.07;2.40;;;;;;;;;;6252678;23;20162;-87
2022/03/23 16:57:23;;;;;;;6.55;2.92;;;;;;;;;;6251400;23;20225;-85
2022/03/23 17:00:34;;;;;;;13.20;4.47;;;;;;;;;;6253140;23;20170;-86
2022/03/23 17:13:55;;;;;;;15.73;4.63;;;;;;;;;;6254894;23;20233;-84
2022/03/23 17:17:01;;;;;;;16.40;5.53;;;;;;;;;;6254434;23;20166;-87
2022/03/23 17:20:07;;;;;;;11.02;4.70;;;;;;;;;;6254046;23;20657;-85
2022/03/23 17:23:14;;;;;;;11.65;3.78;;;;;;;;;;6255191;23;20170;-86
2022/03/23 17:26:20;;;;;;;8.55;3.05;;;;;;;;;;6256134;23;20170;-87
2022/03/23 17:29:25;;;;;;;9.50;3.25;;;;;;;;;;6255119;23;20642;-87
2022/03/23 17:32:32;;;;;;;10.70;3.47;;;;;;;;;;6257875;23;20209;-87
2022/03/23 17:35:38;;;;;;;11.48;3.70;;;;;;;;;;6253480;23;20249;-86
2022/03/23 17:38:48;;;;;;;8.70;4.43;;;;;;;;;;6257908;23;20235;-86
2022/03/23 17:41:53;;;;;;;13.35;4.30;;;;;;;;;;6253132;23;20163;-86
2022/03/23 17:44:58;;;;;;;11.05;3.70;;;;;;;;;;6257366;23;20167;-87
2022/03/23 17:48:04;;;;;;;11.25;3.92;;;;;;;;;;6255186;23;20214;-88
2022/03/23 17:51:09;;;;;;;13.02;4.43;;;;;;;;;;6256052;23;20604;-87
2022/03/23 17:54:16;;;;;;;8.80;4.00;;;;;;;;;;6272795;22;20166;-86
2022/03/23 17:57:22;;;;;;;9.32;3.97;;;;;;;;;;6252457;23;20238;-86
2022/03/23 18:00:27;;;;;;;10.75;4.28;;;;;;;;;;6252065;23;20166;-87
2022/03/23 18:03:34;;;;;;;12.57;4.32;;;;;;;;;;6253308;23;20611;-86
2022/03/23 18:06:39;;;;;;;12.63;4.28;;;;;;;;;;6253543;23;20264;-86
2022/03/23 18:09:46;;;;;;;12.52;4.70;;;;;;;;;;6253183;23;20685;-87
2022/03/23 18:12:51;;;;;;;10.23;5.22;;;;;;;;;;6254676;23;20193;-86
2022/03/23 18:15:57;;;;;;;14.95;5.57;;;;;;;;;;6253162;23;20167;-85
2022/03/23 18:19:01;;;;;;;10.15;4.55;;;;;;;;;;6253289;23;20170;-88
2022/03/23 18:22:07;;;;;;;12.32;5.40;;;;;;;;;;6255451;23;20177;-86
2022/03/23 18:25:14;;;;;;;10.40;4.75;;;;;;;;;;6268591;22;20900;-86
2022/03/23 18:28:18;;;;;;;15.43;5.53;;;;;;;;;;6255204;23;20234;-86
2022/03/23 18:31:24;;;;;;;16.60;6.15;;;;;;;;;;6253965;23;20189;-88
2022/03/23 18:34:29;;;;;;;18.60;6.22;;;;;;;;;;6254418;23;20290;-85
2022/03/23 18:37:34;;;;;;;11.98;4.97;;;;;;;;;;6253309;23;20266;-86
2022/03/23 18:40:43;;;;;;;14.32;5.85;;;;;;;;;;6253720;23;20217;-85
2022/03/23 18:43:49;;;;;;;15.90;6.57;;;;;;;;;;6255054;23;20184;-87
2022/03/23 18:46:54;;;;;;;16.13;6.07;;;;;;;;;;6252873;23;20171;-87
2022/03/23 18:50:00;;;;;;;13.73;5.65;;;;;;;;;;6252526;23;20174;-86
2022/03/23 18:53:05;;;;;;;10.27;4.70;;;;;;;;;;6252302;23;20240;-87
2022/03/23 18:56:12;;;;;;;9.48;4.72;;;;;;;;;;6271417;22;20182;-86
2022/03/23 18:59:17;;;;;;;12.90;4.50;;;;;;;;;;6251285;23;20333;-86
2022/03/23 19:02:22;;;;;;;10.73;4.63;;;;;;;;;;6252745;23;20209;-86
2022/03/23 19:05:27;;;;;;;10.75;4.05;;;;;;;;;;6252066;23;20237;-85
2022/03/23 19:08:32;;;;;;;14.00;4.60;;;;;;;;;;6252559;23;20213;-84
2022/03/23 19:11:38;;;;;;;10.57;5.33;;;;;;;;;;6251464;23;20174;-86
2022/03/23 19:14:47;;;;;;;9.10;4.20;;;;;;;;;;6252724;23;20225;-86
2022/03/23 19:17:54;;;;;;;10.13;5.07;;;;;;;;;;6253576;23;20177;-87
2022/03/23 19:20:59;;;;;;;16.70;6.30;;;;;;;;;;6253614;23;20175;-88
2022/03/23 19:24:04;;;;;;;14.63;5.87;;;;;;;;;;6271524;22;20189;-87
2022/03/23 19:27:12;;;;;;;15.67;5.57;;;;;;;;;;6271472;22;20170;-86
2022/03/23 19:30:20;;;;;;;15.50;5.73;;;;;;;;;;6253324;22;20193;-87
2022/03/23 19:33:25;;;;;;;12.27;5.23;;;;;;;;;;6284751;22;20236;-87
2022/03/23 19:36:31;;;;;;;17.90;5.57;;;;;;;;;;6266278;22;20497;-87
2022/03/23 19:39:37;;;;;;;15.10;5.93;;;;;;;;;;6264786;22;20169;-87
2022/03/23 19:42:43;;;;;;;13.53;5.57;;;;;;;;;;6265247;22;20170;-87
2022/03/23 19:45:49;;;;;;;14.77;5.80;;;;;;;;;;6263426;22;20729;-88
2022/03/23 19:48:55;;;;;;;13.57;5.07;;;;;;;;;;6263432;22;20170;-87
2022/03/23 19:52:00;;;;;;;9.77;4.63;;;;;;;;;;6264507;22;20170;-85
2022/03/23 19:55:06;;;;;;;15.53;4.90;;;;;;;;;;6263413;22;20709;-84
2022/03/23 19:58:12;;;;;;;14.43;5.00;;;;;;;;;;6265550;22;20165;-87
2022/03/23 20:01:17;;;;;;;13.27;5.40;;;;;;;;;;6265977;22;20181;-87
2022/03/23 20:04:22;;;;;;;15.23;5.27;;;;;;;;;;6266220;22;20273;-87
2022/03/23 20:07:27;;;;;;;11.90;5.17;;;;;;;;;;6284144;22;20169;-87
2022/03/23 20:10:32;;;;;;;17.67;6.17;;;;;;;;;;6265225;22;20181;-87
2022/03/23 20:13:42;;;;;;;18.93;9.10;;;;;;;;;;6263615;22;20541;-86
2022/03/23 20:16:49;;;;;;;11.27;5.50;;;;;;;;;;6280616;22;20170;-86
2022/03/23 20:19:54;;;;;;;11.17;4.80;;;;;;;;;;6280908;22;20237;-88
2022/03/23 20:23:00;;;;;;;12.97;5.40;;;;;;;;;;6262526;22;20165;-86
2022/03/23 20:26:05;;;;;;;9.03;5.03;;;;;;;;;;6282647;22;20680;-86
2022/03/23 20:29:11;;;;;;;11.80;5.23;;;;;;;;;;6262548;22;20244;-87
2022/03/23 20:32:16;;;;;;;12.97;6.03;;;;;;;;;;6263627;22;20189;-86
2022/03/23 20:35:21;;;;;;;13.73;5.80;;;;;;;;;;6262680;22;20170;-86
2022/03/23 20:38:26;;;;;;;9.87;4.70;;;;;;;;;;6262099;22;20491;-88
2022/03/23 20:41:33;;;;;;;10.00;4.97;;;;;;;;;;6280683;22;20169;-86
2022/03/23 20:44:40;;;;;;;13.03;5.40;;;;;;;;;;6282969;22;20169;-86
2022/03/23 20:47:49;;;;;;;11.33;4.93;;;;;;;;;;6265205;22;20170;-86
2022/03/23 20:50:55;;;;;;;14.80;4.73;;;;;;;;;;6262748;22;20177;-86
2022/03/23 20:54:00;;;;;;;11.23;5.40;;;;;;;;;;6267251;22;20190;-86
2022/03/23 20:57:05;;;;;;;19.07;5.37;;;;;;;;;;6264781;22;20892;-87
2022/03/23 21:00:14;;;;;;;9.37;4.43;;;;;;;;;;6265218;22;20244;-86
2022/03/23 21:03:20;;;;;;;13.90;5.70;;;;;;;;;;6264682;22;20188;-83
2022/03/23 21:06:28;;;;;;;8.63;4.57;;;;;;;;;;6266837;22;20169;-86
2022/03/23 21:09:34;;;;;;;10.70;4.83;;;;;;;;;;6264508;22;20170;-85
2022/03/23 21:12:38;;;;;;;14.33;6.20;;;;;;;;;;6285477;22;20709;-85
2022/03/23 21:15:46;;;;;;;14.50;5.77;;;;;;;;;;6283482;22;20165;-86
2022/03/23 21:18:51;;;;;;;12.03;5.50;;;;;;;;;;6266289;22;20212;-85
2022/03/23 21:21:56;;;;;;;13.87;5.23;;;;;;;;;;6266061;22;20223;-86
2022/03/23 21:25:06;;;;;;;12.50;5.27;;;;;;;;;;6267812;22;20233;-85
2022/03/23 21:28:12;;;;;;;9.83;5.17;;;;;;;;;;6267567;22;20146;-84
2022/03/23 21:31:23;;;;;;;9.97;4.97;;;;;;;;;;6266414;22;20276;-86
2022/03/23 21:34:28;;;;;;;11.70;4.80;;;;;;;;;;6269082;22;20193;-85
2022/03/23 21:37:46;;;;;;;10.70;5.10;;;;;;;;;;6267260;22;20610;-87
2022/03/23 21:40:52;;;;;;;9.93;4.57;;;;;;;;;;6266562;22;20233;-85
2022/03/23 21:43:57;;;;;;;9.00;4.53;;;;;;;;;;6268060;22;20146;-86
2022/03/23 21:47:03;;;;;;;10.87;5.03;;;;;;;;;;6266809;22;20578;-87
2022/03/23 21:50:09;;;;;;;10.87;5.10;;;;;;;;;;6268254;22;20169;-87
2022/03/23 21:53:14;;;;;;;10.00;4.80;;;;;;;;;;6268821;22;20193;-86
2022/03/23 21:56:19;;;;;;;12.13;4.60;;;;;;;;;;6269046;22;20166;-85
2022/03/23 21:59:25;;;;;;;16.80;5.77;;;;;;;;;;6267974;22;20165;-86
2022/03/23 22:02:31;;;;;;;13.43;4.67;;;;;;;;;;6270916;22;20643;-86